createdAt,value
2023-05-21T00:01:25.946Z,2.22
2023-05-21T00:03:52.716Z,2.88
2023-05-21T00:06:21.143Z,2.92
2023-05-21T00:08:47.865Z,1.85
2023-05-21T00:11:14.413Z,2.90
2023-05-21T00:13:41.060Z,3.55
2023-05-21T00:16:07.928Z,2.80
2023-05-21T00:18:34.545Z,4.60
2023-05-21T00:21:01.841Z,2.40
2023-05-21T00:23:29.047Z,1.95
2023-05-21T00:25:56.344Z,2.30
2023-05-21T00:28:22.893Z,1.42
2023-05-21T00:30:49.586Z,4.75
2023-05-21T00:33:16.238Z,3.92
2023-05-21T00:35:43.009Z,3.75
2023-05-21T00:38:09.615Z,2.20
2023-05-21T00:40:36.423Z,7.05
2023-05-21T00:43:03.436Z,3.03
2023-05-21T00:45:30.122Z,3.20
2023-05-21T00:47:56.921Z,3.22
2023-05-21T00:50:24.249Z,6.57
2023-05-21T00:52:51.739Z,5.85
2023-05-21T00:55:18.411Z,3.28
2023-05-21T00:57:46.032Z,4.57
2023-05-21T01:00:14.623Z,5.68
2023-05-21T01:02:42.178Z,1.80
2023-05-21T01:05:09.821Z,3.25
2023-05-21T01:07:38.939Z,2.25
2023-05-21T01:10:07.713Z,4.18
2023-05-21T01:12:35.563Z,6.50
2023-05-21T01:15:04.163Z,4.05
2023-05-21T01:17:31.862Z,3.75
2023-05-21T01:19:59.467Z,6.35
2023-05-21T01:22:28.667Z,3.10
2023-05-21T01:24:55.599Z,3.03
2023-05-21T01:27:22.807Z,2.65
2023-05-21T01:29:49.582Z,3.67
2023-05-21T01:32:26.244Z,3.45
2023-05-21T01:35:10.129Z,2.63
2023-05-21T01:37:49.053Z,3.63
2023-05-21T01:40:30.860Z,7.22
2023-05-21T01:42:58.431Z,4.70
2023-05-21T01:45:27.506Z,4.10
2023-05-21T01:47:55.740Z,2.90
2023-05-21T01:50:24.978Z,3.80
2023-05-21T01:52:53.685Z,2.22
2023-05-21T01:55:24.853Z,2.35
2023-05-21T01:57:53.517Z,2.53
2023-05-21T02:00:21.655Z,2.85
2023-05-21T02:02:49.057Z,3.78
2023-05-21T02:05:16.379Z,2.88
2023-05-21T02:07:43.960Z,2.42
2023-05-21T02:10:11.092Z,4.63
2023-05-21T02:12:38.458Z,2.42
2023-05-21T02:15:06.083Z,2.30
2023-05-21T02:17:34.106Z,4.05
2023-05-21T02:20:13.861Z,2.80
2023-05-21T02:22:42.566Z,5.95
2023-05-21T02:25:10.127Z,2.97
2023-05-21T02:27:37.796Z,3.67
2023-05-21T02:30:13.145Z,5.18
2023-05-21T02:32:43.013Z,5.35
2023-05-21T02:35:12.057Z,3.33
2023-05-21T02:37:44.086Z,4.93
2023-05-21T02:40:11.969Z,2.85
2023-05-21T02:42:40.511Z,2.17
2023-05-21T02:45:11.517Z,3.72
2023-05-21T02:47:38.801Z,4.65
2023-05-21T02:50:07.386Z,6.78
2023-05-21T02:52:34.035Z,2.75
2023-05-21T02:55:00.617Z,2.83
2023-05-21T02:57:27.209Z,2.53
2023-05-21T02:59:53.780Z,3.17
2023-05-21T03:02:20.765Z,2.53
2023-05-21T03:04:47.908Z,3.08
2023-05-21T03:07:15.798Z,4.18
2023-05-21T03:09:42.512Z,6.32
2023-05-21T03:12:10.047Z,1.95
2023-05-21T03:14:37.136Z,2.53
2023-05-21T03:17:06.219Z,2.53
2023-05-21T03:19:36.782Z,2.85
2023-05-21T03:22:04.596Z,3.45
2023-05-21T03:24:31.824Z,3.92
2023-05-21T03:26:59.307Z,4.88
2023-05-21T03:29:25.876Z,3.22
2023-05-21T03:31:54.130Z,3.88
2023-05-21T03:34:21.271Z,4.60
2023-05-21T03:36:48.049Z,4.03
2023-05-21T03:39:14.692Z,2.67
2023-05-21T03:41:41.317Z,3.45
2023-05-21T03:44:08.277Z,3.40
2023-05-21T03:46:35.201Z,2.08
2023-05-21T03:49:02.350Z,3.30
2023-05-21T03:51:30.430Z,4.05
2023-05-21T03:54:00.272Z,4.05
2023-05-21T03:56:26.948Z,4.70
2023-05-21T03:58:53.742Z,3.47
2023-05-21T04:01:20.402Z,4.30
2023-05-21T04:03:47.483Z,5.28
2023-05-21T04:06:14.245Z,2.95
2023-05-21T04:08:40.860Z,6.38
2023-05-21T04:11:07.470Z,5.72
2023-05-21T04:13:34.071Z,3.85
2023-05-21T04:16:01.168Z,5.70
2023-05-21T04:18:27.916Z,5.88
2023-05-21T04:20:54.527Z,3.30
2023-05-21T04:23:23.718Z,6.60
2023-05-21T04:25:51.038Z,5.28
2023-05-21T04:28:20.335Z,3.67
2023-05-21T04:30:48.071Z,8.98
2023-05-21T04:33:18.388Z,6.25
2023-05-21T04:35:50.211Z,4.28
2023-05-21T04:38:20.863Z,4.25
2023-05-21T04:40:52.972Z,4.53
2023-05-21T04:43:25.994Z,7.68
2023-05-21T04:45:54.915Z,3.90
2023-05-21T04:48:26.857Z,8.23
2023-05-21T04:50:54.081Z,2.72
2023-05-21T04:53:20.837Z,4.28
2023-05-21T04:55:47.493Z,2.80
2023-05-21T04:58:14.700Z,4.32
2023-05-21T05:00:42.292Z,4.78
2023-05-21T05:03:09.112Z,8.18
2023-05-21T05:05:36.208Z,5.43
2023-05-21T05:08:04.052Z,4.15
2023-05-21T05:10:30.725Z,14.88
2023-05-21T05:12:57.272Z,4.88
2023-05-21T05:15:24.108Z,5.03
2023-05-21T05:17:50.719Z,6.18
2023-05-21T05:20:17.427Z,7.03
2023-05-21T05:22:43.951Z,9.70
2023-05-21T05:25:10.718Z,6.13
2023-05-21T05:27:38.602Z,3.25
2023-05-21T05:30:05.931Z,3.88
2023-05-21T05:32:32.626Z,6.03
2023-05-21T05:35:01.005Z,6.95
2023-05-21T05:37:28.810Z,9.27
2023-05-21T05:39:55.370Z,4.97
2023-05-21T05:42:22.000Z,5.28
2023-05-21T05:44:48.557Z,4.68
2023-05-21T05:47:15.181Z,4.80
2023-05-21T05:49:41.833Z,5.50
2023-05-21T05:52:08.524Z,9.68
2023-05-21T05:54:35.114Z,4.00
2023-05-21T05:57:01.753Z,4.05
2023-05-21T05:59:28.315Z,6.18
2023-05-21T06:01:54.902Z,5.63
2023-05-21T06:04:21.467Z,5.03
2023-05-21T06:06:48.237Z,7.43
2023-05-21T06:09:14.906Z,7.05
2023-05-21T06:11:41.530Z,5.72
2023-05-21T06:14:08.063Z,5.40
2023-05-21T06:16:35.010Z,5.78
2023-05-21T06:19:01.715Z,6.88
2023-05-21T06:21:28.521Z,6.40
2023-05-21T06:23:55.081Z,6.22
2023-05-21T06:26:22.001Z,12.35
2023-05-21T06:28:49.015Z,3.80
2023-05-21T06:31:16.241Z,3.00
2023-05-21T06:33:42.928Z,7.32
2023-05-21T06:36:09.635Z,4.20
2023-05-21T06:38:36.312Z,5.72
2023-05-21T06:41:04.165Z,5.70
2023-05-21T06:43:30.796Z,5.63
2023-05-21T06:45:57.460Z,11.38
2023-05-21T06:48:24.045Z,4.28
2023-05-21T06:50:50.704Z,9.35
2023-05-21T06:53:17.282Z,5.43
2023-05-21T06:55:44.982Z,8.38
2023-05-21T06:58:12.142Z,4.18
2023-05-21T07:00:38.712Z,8.02
2023-05-21T07:03:05.864Z,4.07
2023-05-21T07:05:32.519Z,6.68
2023-05-21T07:07:59.069Z,7.95
2023-05-21T07:10:25.831Z,3.67
2023-05-21T07:12:52.409Z,10.60
2023-05-21T07:15:19.061Z,5.65
2023-05-21T07:17:46.029Z,4.75
2023-05-21T07:20:13.376Z,7.57
2023-05-21T07:22:40.110Z,5.80
2023-05-21T07:25:07.195Z,5.90
2023-05-21T07:27:33.780Z,7.55
2023-05-21T07:30:00.588Z,6.90
2023-05-21T07:32:29.219Z,8.95
2023-05-21T07:34:56.706Z,6.32
2023-05-21T07:37:23.413Z,7.72
2023-05-21T07:39:49.994Z,4.85
2023-05-21T07:42:16.578Z,8.18
2023-05-21T07:44:43.114Z,5.90
2023-05-21T07:47:09.822Z,5.43
2023-05-21T07:49:36.401Z,5.22
2023-05-21T07:52:03.001Z,6.38
2023-05-21T07:54:29.560Z,7.00
2023-05-21T07:56:56.410Z,7.97
2023-05-21T07:59:22.971Z,6.38
2023-05-21T08:01:49.660Z,6.15
2023-05-21T08:04:16.668Z,8.40
2023-05-21T08:06:43.333Z,8.35
2023-05-21T08:09:10.047Z,7.40
2023-05-21T08:11:36.595Z,5.47
2023-05-21T08:14:03.245Z,7.25
2023-05-21T08:16:29.891Z,5.70
2023-05-21T08:18:56.492Z,4.18
2023-05-21T08:21:23.161Z,5.88
2023-05-21T08:23:52.583Z,6.82
2023-05-21T08:26:19.151Z,6.95
2023-05-21T08:28:45.737Z,7.10
2023-05-21T08:31:12.493Z,6.35
2023-05-21T08:33:39.098Z,9.88
2023-05-21T08:36:07.120Z,5.90
2023-05-21T08:38:35.059Z,5.03
2023-05-21T08:41:01.737Z,7.00
2023-05-21T08:43:28.717Z,4.00
2023-05-21T08:45:57.447Z,7.85
2023-05-21T08:48:24.687Z,6.85
2023-05-21T08:50:55.034Z,6.93
2023-05-21T08:53:28.791Z,5.47
2023-05-21T08:55:57.496Z,3.60
2023-05-21T08:58:24.646Z,6.70
2023-05-21T09:00:51.489Z,4.40
2023-05-21T09:03:18.374Z,7.90
2023-05-21T09:05:48.274Z,5.70
2023-05-21T09:08:45.982Z,5.97
2023-05-21T09:11:12.571Z,5.22
2023-05-21T09:13:40.685Z,8.25
2023-05-21T09:16:08.148Z,10.77
2023-05-21T09:18:34.730Z,8.73
2023-05-21T09:21:26.164Z,11.32
2023-05-21T09:23:57.758Z,4.85
2023-05-21T09:26:24.986Z,6.95
2023-05-21T09:28:56.501Z,5.95
2023-05-21T09:31:27.220Z,6.72
2023-05-21T09:33:55.657Z,12.55
2023-05-21T09:36:22.296Z,6.28
2023-05-21T09:38:52.237Z,7.38
2023-05-21T09:41:21.782Z,6.18
2023-05-21T09:43:49.440Z,17.98
2023-05-21T09:46:16.242Z,5.80
2023-05-21T09:48:43.603Z,6.95
2023-05-21T09:51:14.248Z,4.63
2023-05-21T09:53:52.343Z,9.35
2023-05-21T09:56:24.727Z,14.68
2023-05-21T09:58:58.401Z,7.80
2023-05-21T10:01:25.155Z,11.88
2023-05-21T10:03:57.047Z,4.32
2023-05-21T10:06:28.410Z,9.75
2023-05-21T10:08:56.953Z,7.63
2023-05-21T10:11:27.360Z,6.28
2023-05-21T10:14:16.369Z,5.18
2023-05-21T10:16:44.470Z,5.38
2023-05-21T10:19:12.245Z,9.85
2023-05-21T10:21:40.027Z,6.32
2023-05-21T10:24:09.150Z,8.63
2023-05-21T10:26:36.803Z,6.07
2023-05-21T10:29:03.556Z,5.00
2023-05-21T10:31:30.145Z,7.90
2023-05-21T10:33:56.832Z,8.50
2023-05-21T10:36:31.050Z,4.05
2023-05-21T10:39:00.244Z,7.13
2023-05-21T10:41:32.160Z,5.55
2023-05-21T10:44:05.846Z,5.68
2023-05-21T10:47:23.196Z,6.43
2023-05-21T10:49:58.568Z,4.55
2023-05-21T10:53:09.931Z,6.93
2023-05-21T10:56:06.699Z,7.82
2023-05-21T10:58:48.317Z,7.60
2023-05-21T11:01:16.319Z,10.30
2023-05-21T11:03:43.187Z,5.57
2023-05-21T11:06:11.666Z,8.10
2023-05-21T11:08:39.023Z,7.63
2023-05-21T11:11:05.955Z,9.60
2023-05-21T11:13:49.805Z,4.18
2023-05-21T11:16:17.594Z,6.60
2023-05-21T11:18:47.270Z,10.07
2023-05-21T11:21:15.625Z,7.43
2023-05-21T11:23:51.756Z,6.97
2023-05-21T11:26:18.332Z,6.35
2023-05-21T11:28:45.068Z,7.07
2023-05-21T11:31:27.995Z,6.43
2023-05-21T11:34:21.845Z,5.90
2023-05-21T11:36:49.708Z,6.97
2023-05-21T11:39:23.988Z,7.53
2023-05-21T11:42:04.314Z,4.47
2023-05-21T11:44:59.149Z,10.52
2023-05-21T11:47:27.165Z,7.43
2023-05-21T11:49:54.553Z,8.93
2023-05-21T11:52:21.520Z,5.30
2023-05-21T11:54:51.886Z,6.00
2023-05-21T11:57:19.503Z,11.25
2023-05-21T11:59:46.790Z,5.65
2023-05-21T12:02:17.636Z,10.70
2023-05-21T12:04:45.481Z,5.68
2023-05-21T12:07:15.305Z,5.13
2023-05-21T12:09:43.420Z,5.70
2023-05-21T12:12:11.409Z,12.98
2023-05-21T12:14:38.189Z,7.45
2023-05-21T12:17:06.966Z,7.35
2023-05-21T12:19:34.668Z,5.60
2023-05-21T12:22:04.924Z,7.20
2023-05-21T12:24:32.645Z,9.07
2023-05-21T12:27:01.420Z,8.23
2023-05-21T12:29:32.244Z,7.53
2023-05-21T12:32:02.856Z,10.48
2023-05-21T12:34:39.190Z,6.38
2023-05-21T12:37:07.845Z,10.40
2023-05-21T12:39:44.930Z,5.65
2023-05-21T12:42:12.424Z,7.43
2023-05-21T12:44:47.306Z,10.90
2023-05-21T12:47:14.338Z,6.03
2023-05-21T12:49:42.646Z,7.70
2023-05-21T12:52:13.244Z,6.68
2023-05-21T12:54:41.978Z,4.70
2023-05-21T12:57:15.789Z,8.75
2023-05-21T12:59:49.562Z,5.47
2023-05-21T13:02:20.754Z,9.60
2023-05-21T13:04:48.421Z,9.20
2023-05-21T13:07:16.622Z,10.38
2023-05-21T13:09:43.300Z,6.97
2023-05-21T13:12:09.928Z,15.27
2023-05-21T13:14:36.562Z,4.97
2023-05-21T13:17:03.283Z,4.32
2023-05-21T13:19:30.028Z,8.43
2023-05-21T13:21:56.691Z,6.05
2023-05-21T13:24:23.503Z,6.78
2023-05-21T13:26:50.154Z,5.47
2023-05-21T13:29:17.213Z,9.20
2023-05-21T13:31:44.341Z,6.57
2023-05-21T13:34:12.685Z,6.63
2023-05-21T13:36:40.535Z,12.25
2023-05-21T13:39:07.705Z,6.18
2023-05-21T13:41:34.288Z,8.13
2023-05-21T13:44:00.976Z,5.15
2023-05-21T13:46:27.568Z,6.57
2023-05-21T13:48:54.314Z,6.82
2023-05-21T13:51:37.557Z,8.77
2023-05-21T13:54:05.681Z,9.43
2023-05-21T13:56:33.626Z,7.88
2023-05-21T13:59:01.344Z,8.70
2023-05-21T14:01:28.024Z,5.97
2023-05-21T14:03:54.845Z,6.68
2023-05-21T14:06:21.439Z,5.20
2023-05-21T14:08:48.202Z,4.88
2023-05-21T14:11:14.765Z,15.27
2023-05-21T14:13:41.511Z,11.80
2023-05-21T14:16:08.234Z,5.28
2023-05-21T14:18:34.801Z,12.20
2023-05-21T14:21:02.144Z,7.07
2023-05-21T14:23:28.952Z,6.30
2023-05-21T14:25:55.596Z,4.93
2023-05-21T14:28:22.153Z,5.90
2023-05-21T14:30:48.815Z,7.22
2023-05-21T14:33:16.290Z,6.00
2023-05-21T14:35:44.308Z,8.50
2023-05-21T14:38:11.136Z,5.53
2023-05-21T14:40:37.693Z,5.72
2023-05-21T14:43:05.707Z,7.05
2023-05-21T14:45:35.382Z,5.93
2023-05-21T14:48:08.237Z,7.90
2023-05-21T14:50:35.890Z,8.82
2023-05-21T14:53:09.896Z,15.88
2023-05-21T14:55:37.772Z,12.37
2023-05-21T14:58:05.646Z,10.00
2023-05-21T15:00:33.686Z,8.10
2023-05-21T15:03:00.962Z,5.97
2023-05-21T15:05:29.332Z,4.25
2023-05-21T15:07:59.328Z,12.20
2023-05-21T15:10:27.236Z,5.90
2023-05-21T15:12:54.329Z,5.57
2023-05-21T15:15:21.181Z,7.85
2023-05-21T15:17:48.915Z,11.30
2023-05-21T15:20:16.075Z,11.55
2023-05-21T15:22:42.866Z,12.55
2023-05-21T15:25:10.680Z,9.45
2023-05-21T15:27:37.303Z,4.22
2023-05-21T15:30:04.770Z,8.63
2023-05-21T15:32:31.610Z,6.75
2023-05-21T15:34:58.509Z,8.80
2023-05-21T15:37:25.346Z,8.98
2023-05-21T15:39:53.445Z,8.35
2023-05-21T15:42:20.046Z,6.60
2023-05-21T15:44:47.018Z,6.30
2023-05-21T15:47:13.583Z,11.60
2023-05-21T15:49:40.181Z,10.32
2023-05-21T15:52:07.078Z,6.45
2023-05-21T15:54:33.650Z,8.90
2023-05-21T15:57:00.807Z,8.75
2023-05-21T15:59:27.689Z,14.80
2023-05-21T16:01:56.108Z,20.98
2023-05-21T16:04:22.810Z,12.02
2023-05-21T16:06:49.404Z,12.30
2023-05-21T16:09:16.004Z,12.48
2023-05-21T16:11:44.795Z,8.10
2023-05-21T16:14:12.298Z,9.27
2023-05-21T16:16:39.383Z,7.93
2023-05-21T16:19:06.233Z,12.10
2023-05-21T16:21:33.044Z,7.30
2023-05-21T16:24:00.150Z,10.75
2023-05-21T16:26:26.805Z,10.68
2023-05-21T16:28:53.624Z,10.25
2023-05-21T16:31:20.521Z,15.40
2023-05-21T16:33:47.224Z,12.25
2023-05-21T16:36:15.062Z,9.00
2023-05-21T16:38:44.339Z,6.65
2023-05-21T16:41:11.185Z,14.95
2023-05-21T16:43:37.725Z,15.30
2023-05-21T16:46:04.374Z,13.75
2023-05-21T16:48:32.292Z,7.50
2023-05-21T16:50:59.105Z,11.02
2023-05-21T16:53:25.666Z,11.15
2023-05-21T16:55:52.238Z,9.10
2023-05-21T16:58:19.097Z,14.07
2023-05-21T17:00:46.120Z,12.30
2023-05-21T17:03:13.031Z,10.48
2023-05-21T17:05:39.805Z,12.80
2023-05-21T17:08:06.434Z,9.00
2023-05-21T17:10:33.060Z,13.05
2023-05-21T17:13:01.889Z,12.85
2023-05-21T17:15:33.402Z,11.55
2023-05-21T17:18:00.298Z,9.40
2023-05-21T17:20:26.959Z,14.95
2023-05-21T17:22:53.622Z,8.93
2023-05-21T17:25:20.392Z,12.70
2023-05-21T17:27:47.039Z,9.93
2023-05-21T17:30:13.691Z,15.52
2023-05-21T17:32:40.484Z,9.90
2023-05-21T17:35:09.185Z,16.30
2023-05-21T17:37:35.899Z,12.45
2023-05-21T17:40:02.696Z,11.50
2023-05-21T17:42:29.259Z,9.48
2023-05-21T17:44:55.917Z,10.15
2023-05-21T17:47:22.729Z,14.23
2023-05-21T17:49:49.415Z,10.27
2023-05-21T17:52:15.957Z,12.27
2023-05-21T17:54:42.552Z,10.70
2023-05-21T17:57:09.127Z,10.32
2023-05-21T17:59:35.825Z,8.48
2023-05-21T18:02:02.521Z,9.48
2023-05-21T18:04:29.184Z,11.27
2023-05-21T18:06:55.876Z,13.20
2023-05-21T18:09:22.537Z,15.82
2023-05-21T18:11:49.395Z,12.55
2023-05-21T18:14:15.973Z,12.48
2023-05-21T18:16:42.622Z,11.82
2023-05-21T18:19:09.388Z,13.23
2023-05-21T18:21:37.292Z,14.93
2023-05-21T18:24:04.654Z,9.82
2023-05-21T18:26:31.368Z,10.75
2023-05-21T18:28:58.629Z,12.18
2023-05-21T18:31:25.728Z,17.20
2023-05-21T18:33:52.634Z,12.80
2023-05-21T18:36:19.330Z,11.02
2023-05-21T18:38:46.085Z,9.73
2023-05-21T18:41:12.663Z,15.77
2023-05-21T18:43:39.369Z,16.15
2023-05-21T18:46:05.970Z,14.70
2023-05-21T18:48:33.045Z,14.45
2023-05-21T18:50:59.647Z,11.07
2023-05-21T18:53:26.234Z,9.25
2023-05-21T18:55:52.786Z,13.07
2023-05-21T18:58:19.394Z,10.88
2023-05-21T19:00:46.025Z,11.73
2023-05-21T19:03:12.653Z,11.23
2023-05-21T19:05:39.296Z,13.63
2023-05-21T19:08:06.150Z,9.68
2023-05-21T19:10:32.795Z,17.45
2023-05-21T19:12:59.448Z,11.88
2023-05-21T19:15:26.019Z,12.93
2023-05-21T19:17:52.721Z,15.57
2023-05-21T19:20:26.677Z,11.73
2023-05-21T19:22:54.466Z,12.53
2023-05-21T19:25:21.304Z,10.98
2023-05-21T19:27:47.960Z,9.30
2023-05-21T19:30:14.584Z,11.98
2023-05-21T19:32:41.143Z,10.43
2023-05-21T19:35:08.239Z,15.95
2023-05-21T19:37:35.029Z,15.45
2023-05-21T19:40:01.606Z,10.60
2023-05-21T19:42:28.563Z,12.10
2023-05-21T19:44:55.113Z,13.18
2023-05-21T19:47:21.761Z,13.38
2023-05-21T19:49:48.322Z,13.10
2023-05-21T19:52:14.970Z,21.13
2023-05-21T19:54:41.540Z,12.48
2023-05-21T19:57:09.622Z,10.13
2023-05-21T19:59:38.211Z,10.27
2023-05-21T20:02:04.949Z,13.30
2023-05-21T20:04:32.616Z,10.18
2023-05-21T20:06:59.187Z,8.88
2023-05-21T20:09:25.980Z,16.90
2023-05-21T20:11:52.572Z,11.88
2023-05-21T20:14:19.155Z,19.40
2023-05-21T20:16:48.492Z,11.00
2023-05-21T20:19:15.323Z,16.95
2023-05-21T20:21:42.180Z,13.88
2023-05-21T20:24:08.875Z,12.77
2023-05-21T20:26:36.505Z,18.35
2023-05-21T20:29:03.130Z,14.55
2023-05-21T20:31:29.973Z,17.27
2023-05-21T20:33:56.577Z,13.82
2023-05-21T20:36:23.803Z,15.80
2023-05-21T20:38:50.438Z,11.57
2023-05-21T20:41:17.175Z,20.35
2023-05-21T20:43:45.333Z,17.33
2023-05-21T20:46:11.960Z,18.73
2023-05-21T20:48:38.553Z,14.55
2023-05-21T20:51:05.255Z,20.35
2023-05-21T20:53:32.059Z,17.42
2023-05-21T20:56:01.549Z,14.93
2023-05-21T20:58:28.289Z,14.82
2023-05-21T21:00:55.307Z,15.73
2023-05-21T21:03:22.285Z,16.42
2023-05-21T21:05:49.081Z,18.77
2023-05-21T21:08:16.200Z,13.75
2023-05-21T21:10:46.765Z,15.10
2023-05-21T21:13:14.272Z,19.50
2023-05-21T21:15:41.001Z,20.92
2023-05-21T21:18:07.756Z,20.50
2023-05-21T21:20:34.486Z,16.08
2023-05-21T21:23:01.077Z,16.35
2023-05-21T21:25:27.653Z,16.52
2023-05-21T21:27:54.271Z,15.98
2023-05-21T21:30:20.868Z,12.25
2023-05-21T21:32:49.374Z,15.15
2023-05-21T21:35:16.191Z,15.63
2023-05-21T21:37:43.009Z,14.57
2023-05-21T21:40:09.834Z,20.40
2023-05-21T21:42:36.443Z,16.75
2023-05-21T21:45:03.859Z,25.75
2023-05-21T21:47:30.821Z,20.83
2023-05-21T21:49:57.385Z,17.98
2023-05-21T21:52:27.427Z,13.25
2023-05-21T21:54:55.512Z,16.08
2023-05-21T21:57:22.166Z,20.63
2023-05-21T21:59:48.714Z,13.95
2023-05-21T22:02:17.033Z,15.68
2023-05-21T22:04:45.031Z,18.58
2023-05-21T22:07:17.972Z,19.10
2023-05-21T22:09:45.679Z,14.18
2023-05-21T22:12:13.295Z,19.77
2023-05-21T22:14:39.878Z,16.17
2023-05-21T22:17:08.418Z,15.48
2023-05-21T22:19:35.899Z,17.98
2023-05-21T22:22:04.053Z,17.15
2023-05-21T22:24:31.968Z,20.73
2023-05-21T22:26:59.882Z,20.50
2023-05-21T22:29:26.502Z,21.80
2023-05-21T22:31:53.105Z,16.08
2023-05-21T22:34:19.942Z,19.77
2023-05-21T22:36:47.032Z,15.98
2023-05-21T22:39:13.635Z,24.27
2023-05-21T22:41:40.484Z,22.38
2023-05-21T22:44:07.036Z,17.70
2023-05-21T22:46:35.389Z,21.98
2023-05-21T22:49:02.620Z,24.13
2023-05-21T22:51:34.892Z,23.30
2023-05-21T22:54:01.853Z,20.90
2023-05-21T22:56:28.676Z,26.55
2023-05-21T22:58:55.738Z,22.17
2023-05-21T23:01:22.757Z,16.65
2023-05-21T23:03:50.990Z,19.00
2023-05-21T23:06:17.579Z,21.05
2023-05-21T23:08:44.110Z,22.77
2023-05-21T23:11:10.888Z,22.23
2023-05-21T23:13:37.506Z,19.67
2023-05-21T23:16:04.434Z,19.27
2023-05-21T23:18:31.160Z,22.42
2023-05-21T23:20:57.754Z,21.15
2023-05-21T23:23:24.374Z,24.98
2023-05-21T23:25:53.045Z,19.90
2023-05-21T23:28:19.819Z,21.70
2023-05-21T23:30:46.612Z,23.10
2023-05-21T23:33:13.679Z,24.48
2023-05-21T23:35:40.773Z,18.92
2023-05-21T23:38:07.388Z,25.48
2023-05-21T23:40:33.960Z,24.35
2023-05-21T23:43:00.994Z,19.65
2023-05-21T23:45:27.565Z,20.58
2023-05-21T23:47:54.240Z,21.77
2023-05-21T23:50:20.894Z,16.75
2023-05-21T23:52:47.534Z,18.90
2023-05-21T23:55:14.895Z,24.67
2023-05-21T23:57:41.635Z,17.15
